Time;durP1;ratioP1;P1;durP2;ratioP2;P2;SDS_P1;SDS_P2;PMS_P1;PMS_P2;Temp;Humidity;BMP_temperature;BMP_pressure;BME280_temperature;BME280_humidity;BME280_pressure;Samples;Min_cycle;Max_cycle;Signal;HPM_P1;HPM_P2
2022/08/27 00:02:07;;;;;;;6.28;2.70;;;15.60;99.90;;;;;;5075987;28;20024;-70
2022/08/27 00:04:33;;;;;;;6.63;2.58;;;15.60;99.90;;;;;;5076047;28;20017;-71
2022/08/27 00:07:00;;;;;;;10.20;2.83;;;15.60;99.90;;;;;;5076483;28;20099;-68
2022/08/27 00:09:26;;;;;;;10.60;3.00;;;15.60;99.90;;;;;;5075964;28;20446;-67
2022/08/27 00:11:51;;;;;;;6.70;2.88;;;15.60;99.90;;;;;;5076079;28;20070;-67
2022/08/27 00:14:17;;;;;;;10.05;2.60;;;15.60;99.90;;;;;;5075760;28;20024;-65
2022/08/27 00:16:43;;;;;;;10.23;2.92;;;15.50;99.90;;;;;;5075149;28;20359;-67
2022/08/27 00:19:08;;;;;;;11.25;3.53;;;15.50;99.90;;;;;;5074555;28;20358;-68
2022/08/27 00:21:34;;;;;;;10.13;2.95;;;15.50;99.90;;;;;;5075497;28;20371;-67
2022/08/27 00:24:00;;;;;;;10.18;2.28;;;15.40;99.90;;;;;;5075765;28;20105;-67
2022/08/27 00:26:25;;;;;;;6.63;2.33;;;15.40;99.90;;;;;;5075747;28;20021;-67
2022/08/27 00:28:51;;;;;;;8.07;2.45;;;15.40;99.90;;;;;;5075537;28;20017;-67
2022/08/27 00:31:17;;;;;;;11.05;2.80;;;15.30;99.90;;;;;;5075170;28;20048;-67
2022/08/27 00:33:43;;;;;;;8.98;2.80;;;15.30;99.90;;;;;;5075714;28;20024;-66
2022/08/27 00:36:11;;;;;;;10.55;2.88;;;15.30;99.90;;;;;;5075183;28;20020;-67
2022/08/27 00:38:37;;;;;;;6.25;2.80;;;15.30;99.90;;;;;;5075041;28;20033;-67
2022/08/27 00:41:07;;;;;;;12.75;2.90;;;15.30;99.90;;;;;;5075242;28;20093;-67
2022/08/27 00:43:56;;;;;;;10.48;3.05;;;15.20;99.90;;;;;;5075429;28;20035;-69
2022/08/27 00:46:46;;;;;;;7.07;2.60;;;15.20;99.90;;;;;;5075567;28;20358;-67
2022/08/27 00:49:20;;;;;;;6.20;2.50;;;15.20;99.90;;;;;;5075261;28;20021;-67
2022/08/27 00:51:51;;;;;;;6.07;2.60;;;15.20;99.90;;;;;;5075008;28;20059;-68
2022/08/27 00:54:18;;;;;;;13.15;3.08;;;15.10;99.90;;;;;;5074901;28;20021;-67
2022/08/27 00:56:44;;;;;;;10.30;2.83;;;15.10;99.90;;;;;;5075275;28;20036;-67
2022/08/27 00:59:14;;;;;;;9.35;2.88;;;15.10;99.90;;;;;;5074878;28;20502;-66
2022/08/27 01:02:17;;;;;;;10.10;2.85;;;15.00;99.90;;;;;;5074868;28;20031;-67
2022/08/27 01:04:28;;;;;;;8.95;2.60;;;15.10;99.90;;;;;;5074142;28;20066;-67
2022/08/27 01:06:54;;;;;;;8.52;2.55;;;15.00;99.90;;;;;;5074468;28;20013;-70
2022/08/27 01:09:20;;;;;;;7.38;2.40;;;15.00;99.90;;;;;;5074853;28;20039;-67
2022/08/27 01:11:47;;;;;;;6.15;2.50;;;15.00;99.90;;;;;;5074626;28;20374;-67
2022/08/27 01:14:13;;;;;;;7.25;2.55;;;15.00;99.90;;;;;;5074337;28;20032;-71
2022/08/27 01:16:48;;;;;;;9.18;2.40;;;15.00;99.90;;;;;;5074543;28;20021;-69
2022/08/27 01:19:23;;;;;;;5.55;2.47;;;14.90;99.90;;;;;;5072575;28;20021;-66
2022/08/27 01:22:11;;;;;;;6.78;2.63;;;14.90;99.90;;;;;;5074232;28;20035;-68
2022/08/27 01:24:47;;;;;;;11.88;3.08;;;14.90;99.90;;;;;;5072789;28;20051;-67
2022/08/27 01:27:17;;;;;;;9.02;2.60;;;14.90;99.90;;;;;;5072654;28;20469;-66
2022/08/27 01:29:44;;;;;;;6.93;2.35;;;14.90;99.90;;;;;;5059463;28;20025;-68
2022/08/27 01:32:14;;;;;;;11.90;2.90;;;14.90;99.90;;;;;;5053981;28;20021;-67
2022/08/27 01:34:40;;;;;;;9.10;2.88;;;14.90;99.90;;;;;;5053628;28;20020;-66
2022/08/27 01:37:06;;;;;;;7.32;2.25;;;14.90;99.90;;;;;;5053869;28;20490;-67
2022/08/27 01:39:36;;;;;;;7.03;2.63;;;14.90;99.90;;;;;;5054031;28;20586;-67
2022/08/27 01:42:25;;;;;;;9.48;2.50;;;14.90;99.90;;;;;;5053890;28;20021;-68
2022/08/27 01:44:57;;;;;;;7.57;2.20;;;14.90;99.90;;;;;;5053801;28;20431;-67
2022/08/27 01:47:25;;;;;;;7.15;2.20;;;14.90;99.90;;;;;;5053946;28;20024;-67
2022/08/27 01:49:51;;;;;;;6.18;2.05;;;14.90;99.90;;;;;;5053744;28;20025;-67
2022/08/27 01:52:19;;;;;;;9.52;2.40;;;14.90;99.90;;;;;;5053930;28;20143;-71
2022/08/27 01:54:45;;;;;;;7.20;2.25;;;14.90;99.90;;;;;;5053418;28;20025;-66
2022/08/27 01:57:11;;;;;;;7.78;2.83;;;14.80;99.90;;;;;;5053713;28;20450;-67
2022/08/27 01:59:37;;;;;;;9.88;2.58;;;14.80;99.90;;;;;;5053148;28;20041;-67
2022/08/27 02:02:03;;;;;;;6.53;2.50;;;14.80;99.90;;;;;;5053118;28;20036;-68
2022/08/27 02:04:30;;;;;;;5.10;2.25;;;14.80;99.90;;;;;;5053150;28;20127;-70
2022/08/27 02:06:57;;;;;;;6.70;2.60;;;14.70;99.90;;;;;;5053553;28;20013;-68
2022/08/27 02:09:23;;;;;;;10.77;3.00;;;14.70;99.90;;;;;;5053347;28;20021;-68
2022/08/27 02:11:49;;;;;;;11.73;3.17;;;14.70;99.90;;;;;;5053066;28;20039;-68
2022/08/27 02:14:14;;;;;;;6.35;2.72;;;14.70;99.90;;;;;;5053084;28;20095;-70
2022/08/27 02:16:41;;;;;;;7.95;2.95;;;14.60;99.90;;;;;;5053383;28;20458;-67
2022/08/27 02:19:07;;;;;;;7.43;3.30;;;14.70;99.90;;;;;;5053173;28;20028;-67
2022/08/27 02:21:33;;;;;;;7.57;2.60;;;14.60;99.90;;;;;;5052824;28;20037;-70
2022/08/27 02:23:58;;;;;;;9.38;2.80;;;14.60;99.90;;;;;;5053135;28;20021;-67
2022/08/27 02:26:26;;;;;;;9.82;2.83;;;14.60;99.90;;;;;;5053032;28;20021;-71
2022/08/27 02:28:52;;;;;;;10.43;3.22;;;14.60;99.90;;;;;;5059909;28;20008;-69
2022/08/27 02:31:18;;;;;;;7.68;3.00;;;14.60;99.90;;;;;;5073287;28;20059;-68
2022/08/27 02:33:43;;;;;;;8.82;2.72;;;14.50;99.90;;;;;;5073060;28;20047;-70
2022/08/27 02:36:09;;;;;;;8.30;3.10;;;14.50;99.90;;;;;;5073429;28;20358;-71
2022/08/27 02:38:35;;;;;;;6.28;2.45;;;14.50;99.90;;;;;;5072782;28;20028;-70
2022/08/27 02:41:01;;;;;;;6.43;2.58;;;14.50;99.90;;;;;;5072306;28;20075;-67
2022/08/27 02:43:26;;;;;;;10.02;2.70;;;14.40;99.90;;;;;;5072704;28;20033;-68
2022/08/27 02:45:52;;;;;;;8.98;3.10;;;14.40;99.90;;;;;;5072669;28;20023;-69
2022/08/27 02:48:19;;;;;;;7.40;2.75;;;14.40;99.90;;;;;;5072781;28;20040;-67
2022/08/27 02:50:45;;;;;;;6.63;2.97;;;14.40;99.90;;;;;;5073239;28;20024;-69
2022/08/27 02:53:11;;;;;;;6.97;2.85;;;14.40;99.90;;;;;;5072581;28;20065;-68
2022/08/27 02:55:37;;;;;;;7.72;2.75;;;14.40;99.90;;;;;;5072957;28;20115;-68
2022/08/27 02:58:03;;;;;;;5.63;2.75;;;14.40;99.90;;;;;;5072289;28;20116;-69
2022/08/27 03:00:29;;;;;;;8.77;2.80;;;14.40;99.90;;;;;;5072442;28;20094;-67
2022/08/27 03:02:55;;;;;;;6.70;2.72;;;14.40;99.90;;;;;;5071276;28;20063;-69
2022/08/27 03:05:22;;;;;;;30.75;9.32;;;14.40;99.90;;;;;;5072425;28;20024;-68
2022/08/27 03:07:48;;;;;;;10.85;3.78;;;14.40;99.90;;;;;;5072530;28;20774;-67
2022/08/27 03:10:17;;;;;;;15.65;4.13;;;14.40;99.90;;;;;;5072541;28;20024;-67
2022/08/27 03:12:43;;;;;;;13.90;3.88;;;14.40;99.90;;;;;;5072520;28;20105;-69
2022/08/27 03:15:12;;;;;;;10.15;3.22;;;14.40;99.90;;;;;;5072585;28;20017;-67
2022/08/27 03:20:23;;;;;;;10.50;3.10;;;14.40;99.90;;;;;;5072265;28;20552;-67
2022/08/27 03:22:49;;;;;;;9.50;3.47;;;14.40;99.90;;;;;;5072420;28;20020;-67
2022/08/27 03:25:15;;;;;;;10.77;3.28;;;14.40;99.90;;;;;;5072496;28;20027;-69
2022/08/27 03:27:41;;;;;;;10.05;2.80;;;14.40;99.90;;;;;;5072384;28;20029;-67
2022/08/27 03:30:10;;;;;;;7.72;3.00;;;14.40;99.90;;;;;;5072111;28;20025;-69
2022/08/27 03:32:36;;;;;;;8.88;2.90;;;14.40;99.90;;;;;;5072184;28;20044;-70
2022/08/27 03:35:03;;;;;;;8.77;3.35;;;14.50;99.90;;;;;;5072292;28;20081;-68
2022/08/27 03:37:28;;;;;;;5.20;2.83;;;14.50;99.90;;;;;;5071971;28;20417;-65
2022/08/27 03:39:54;;;;;;;6.13;3.00;;;14.60;99.90;;;;;;5072310;28;20072;-65
2022/08/27 03:42:21;;;;;;;10.52;2.90;;;14.70;99.90;;;;;;5072374;28;20040;-72
2022/08/27 03:44:47;;;;;;;5.88;2.50;;;14.80;99.90;;;;;;5070889;28;20416;-71
2022/08/27 03:47:12;;;;;;;7.50;2.47;;;14.90;99.90;;;;;;5071916;28;20433;-67
2022/08/27 03:49:38;;;;;;;5.97;2.22;;;15.00;99.90;;;;;;5072174;28;20024;-69
2022/08/27 03:52:04;;;;;;;5.00;2.50;;;15.10;99.90;;;;;;5072640;28;20374;-67
2022/08/27 03:54:31;;;;;;;7.03;2.00;;;15.20;99.90;;;;;;5075941;28;20370;-69
2022/08/27 03:56:57;;;;;;;10.80;2.35;;;15.30;99.90;;;;;;5075552;28;20031;-71
2022/08/27 03:59:22;;;;;;;5.35;2.10;;;15.40;99.90;;;;;;5075755;28;20037;-68
2022/08/27 04:01:48;;;;;;;5.65;2.20;;;15.50;99.90;;;;;;5075553;28;20033;-66
2022/08/27 04:04:13;;;;;;;4.72;2.40;;;15.60;99.90;;;;;;5075801;28;20021;-68
2022/08/27 04:06:40;;;;;;;6.60;2.40;;;15.70;99.90;;;;;;5075385;28;20450;-67
2022/08/27 04:09:05;;;;;;;4.00;1.98;;;15.80;99.90;;;;;;5075338;28;20024;-67
2022/08/27 04:11:33;;;;;;;6.03;2.30;;;15.90;99.90;;;;;;5075392;28;20028;-66
2022/08/27 04:13:59;;;;;;;7.72;2.10;;;15.90;99.90;;;;;;5075582;28;20079;-67
2022/08/27 04:16:25;;;;;;;8.70;2.00;;;16.00;99.90;;;;;;5075211;28;20032;-67
2022/08/27 04:18:54;;;;;;;4.75;2.30;;;16.10;99.90;;;;;;5075508;28;20097;-68
2022/08/27 04:21:19;;;;;;;6.32;2.25;;;16.20;99.90;;;;;;5075265;28;20473;-68
2022/08/27 04:23:45;;;;;;;7.57;2.47;;;16.30;99.90;;;;;;5073930;28;20100;-67
2022/08/27 04:26:11;;;;;;;5.40;2.35;;;16.30;99.90;;;;;;5075415;28;20052;-67
2022/08/27 04:28:37;;;;;;;6.72;2.72;;;16.40;99.90;;;;;;5070356;28;20052;-67
2022/08/27 04:31:03;;;;;;;5.80;2.42;;;16.50;99.90;;;;;;5055368;28;20017;-67
2022/08/27 04:33:31;;;;;;;10.40;2.70;;;16.50;99.90;;;;;;5055381;28;20059;-68
2022/08/27 04:35:58;;;;;;;7.07;2.67;;;16.60;99.90;;;;;;5055194;28;20450;-67
2022/08/27 04:38:24;;;;;;;9.32;2.80;;;16.70;99.90;;;;;;5055080;28;20028;-66
2022/08/27 04:43:34;;;;;;;10.18;3.05;;;16.80;99.90;;;;;;5054465;28;20430;-67
2022/08/27 04:45:59;;;;;;;7.93;2.50;;;16.80;99.90;;;;;;5054647;28;20451;-67
2022/08/27 04:48:25;;;;;;;9.00;2.70;;;16.90;99.90;;;;;;5054671;28;20025;-67
2022/08/27 04:50:50;;;;;;;9.75;3.10;;;16.90;99.90;;;;;;5054567;28;20104;-67
2022/08/27 04:53:18;;;;;;;10.75;3.10;;;17.00;99.90;;;;;;5054928;28;20366;-70
2022/08/27 04:55:45;;;;;;;9.77;3.35;;;17.00;99.90;;;;;;5054170;28;20435;-66
2022/08/27 04:58:12;;;;;;;8.40;2.88;;;17.10;99.90;;;;;;5054594;28;20047;-68
2022/08/27 05:00:42;;;;;;;13.52;3.30;;;17.20;99.90;;;;;;5054362;28;20494;-67
2022/08/27 05:03:08;;;;;;;12.02;2.75;;;17.20;99.90;;;;;;5054651;28;20071;-67
2022/08/27 05:05:33;;;;;;;11.70;3.40;;;17.20;99.90;;;;;;5054446;28;20063;-66
2022/08/27 05:07:59;;;;;;;9.45;3.03;;;17.30;99.90;;;;;;5054387;28;20025;-67
2022/08/27 05:10:25;;;;;;;8.70;3.10;;;17.30;99.90;;;;;;5054343;28;20096;-71
2022/08/27 05:12:50;;;;;;;9.20;3.15;;;17.30;99.90;;;;;;5054445;28;20029;-71
2022/08/27 05:15:16;;;;;;;12.43;3.28;;;17.20;99.90;;;;;;5054465;28;20025;-68
2022/08/27 05:17:42;;;;;;;11.75;3.60;;;17.20;99.90;;;;;;5054847;28;20033;-67
2022/08/27 05:20:09;;;;;;;8.25;2.67;;;17.20;99.90;;;;;;5054376;28;20025;-67
2022/08/27 05:22:34;;;;;;;13.02;3.20;;;17.20;99.90;;;;;;5054264;28;20017;-69
2022/08/27 05:25:00;;;;;;;10.25;3.47;;;17.10;99.90;;;;;;5053715;28;20025;-67
2022/08/27 05:27:26;;;;;;;11.95;3.15;;;17.10;99.90;;;;;;5054247;28;20047;-67
2022/08/27 05:29:51;;;;;;;8.65;3.42;;;17.00;99.90;;;;;;5067955;28;20029;-71
2022/08/27 05:32:17;;;;;;;7.15;2.83;;;17.00;99.90;;;;;;5073984;28;20028;-69
2022/08/27 05:34:42;;;;;;;9.10;3.30;;;17.00;99.90;;;;;;5072630;28;20021;-67
2022/08/27 05:37:08;;;;;;;7.95;2.70;;;17.00;99.90;;;;;;5073528;28;20020;-67
2022/08/27 05:39:34;;;;;;;9.60;4.07;;;17.00;99.90;;;;;;5073765;28;20025;-68
2022/08/27 05:42:00;;;;;;;13.20;3.08;;;17.00;99.90;;;;;;5073626;28;20089;-67
2022/08/27 05:44:25;;;;;;;9.02;3.08;;;17.10;99.90;;;;;;5073809;28;20499;-69
2022/08/27 05:46:51;;;;;;;9.25;2.28;;;17.10;99.90;;;;;;5073571;28;20413;-70
2022/08/27 05:49:17;;;;;;;6.65;2.35;;;17.20;99.90;;;;;;5073813;28;20446;-66
2022/08/27 05:51:42;;;;;;;9.32;2.35;;;17.20;99.90;;;;;;5073540;28;20020;-67
2022/08/27 05:54:13;;;;;;;8.27;2.83;;;17.30;99.90;;;;;;5073446;28;20028;-69
2022/08/27 05:56:40;;;;;;;8.10;2.45;;;17.50;99.90;;;;;;5073570;28;20469;-70
2022/08/27 06:01:53;;;;;;;4.60;2.00;;;17.90;99.90;;;;;;5073599;28;20496;-70
2022/08/27 06:04:19;;;;;;;7.35;2.53;;;18.20;99.90;;;;;;5073575;28;20027;-68
2022/08/27 06:06:46;;;;;;;6.78;1.92;;;18.40;99.90;;;;;;5073148;28;20020;-67
2022/08/27 06:09:15;;;;;;;8.82;2.13;;;18.60;99.90;;;;;;5073313;28;20035;-67
2022/08/27 06:11:41;;;;;;;5.38;1.98;;;18.80;99.90;;;;;;5073404;28;20048;-69
2022/08/27 06:14:07;;;;;;;5.28;1.40;;;18.90;99.90;;;;;;5073333;28;20036;-66
2022/08/27 06:16:33;;;;;;;4.78;1.48;;;19.00;99.90;;;;;;5072574;28;20032;-68
2022/08/27 06:18:59;;;;;;;10.07;1.80;;;19.10;99.90;;;;;;5073665;28;20028;-67
2022/08/27 06:21:25;;;;;;;5.95;1.50;;;19.10;99.90;;;;;;5072698;28;20386;-68
2022/08/27 06:23:52;;;;;;;10.10;1.88;;;19.10;99.90;;;;;;5073369;28;20112;-68
2022/08/27 06:26:19;;;;;;;5.47;1.90;;;19.10;99.90;;;;;;5073119;28;20031;-67
2022/08/27 06:28:45;;;;;;;6.05;1.88;;;19.10;99.90;;;;;;5066048;28;20458;-66
2022/08/27 06:31:21;;;;;;;7.75;2.22;;;19.10;99.90;;;;;;5072734;28;20025;-67
2022/08/27 06:33:47;;;;;;;5.40;1.55;;;19.20;99.90;;;;;;5072296;28;20020;-67
2022/08/27 06:36:15;;;;;;;7.43;1.48;;;19.20;99.90;;;;;;5073171;28;20516;-67
2022/08/27 06:38:44;;;;;;;7.35;2.15;;;19.30;99.90;;;;;;5073251;28;20032;-67
2022/08/27 06:41:11;;;;;;;4.90;1.65;;;19.30;99.90;;;;;;5072356;28;20374;-68
2022/08/27 06:43:39;;;;;;;7.00;1.40;;;19.40;99.90;;;;;;5072945;28;20036;-70
2022/08/27 06:46:08;;;;;;;4.18;1.38;;;19.50;99.90;;;;;;5073350;28;20028;-68
2022/08/27 06:48:33;;;;;;;3.65;1.40;;;19.50;99.90;;;;;;5072816;28;20020;-67
2022/08/27 06:50:59;;;;;;;4.68;1.50;;;19.60;99.90;;;;;;5072452;28;20477;-68
2022/08/27 06:53:25;;;;;;;4.57;1.60;;;19.70;99.90;;;;;;5073297;28;20027;-68
2022/08/27 06:55:51;;;;;;;7.30;1.30;;;19.90;99.90;;;;;;5071494;28;20021;-67
2022/08/27 06:58:18;;;;;;;5.00;1.50;;;20.20;99.90;;;;;;5071772;28;20070;-67
2022/08/27 07:00:44;;;;;;;4.70;1.33;;;20.50;99.90;;;;;;5072583;28;20037;-68
2022/08/27 07:03:10;;;;;;;3.58;1.30;;;20.80;99.90;;;;;;5072730;28;20024;-67
2022/08/27 07:05:38;;;;;;;5.75;1.80;;;21.20;99.90;;;;;;5072487;28;20031;-66
2022/08/27 07:08:05;;;;;;;5.65;1.40;;;21.50;99.80;;;;;;5072858;28;20039;-67
2022/08/27 07:10:31;;;;;;;4.80;1.50;;;21.80;99.30;;;;;;5072564;28;20025;-68
2022/08/27 07:12:57;;;;;;;8.65;1.75;;;22.00;98.90;;;;;;5072739;28;20062;-68
2022/08/27 07:15:23;;;;;;;3.50;1.40;;;22.30;98.40;;;;;;5072962;28;20013;-67
2022/08/27 07:17:49;;;;;;;5.13;1.40;;;22.30;97.80;;;;;;5073069;28;20032;-67
2022/08/27 07:20:16;;;;;;;5.28;1.20;;;22.20;97.60;;;;;;5072896;28;20115;-71
2022/08/27 07:22:42;;;;;;;5.45;1.52;;;22.10;98.10;;;;;;5072750;28;20028;-66
2022/08/27 07:25:11;;;;;;;5.25;1.30;;;22.00;98.00;;;;;;5072600;28;20016;-68
2022/08/27 07:27:38;;;;;;;2.70;1.08;;;22.10;97.70;;;;;;5074594;28;20031;-68
2022/08/27 07:30:14;;;;;;;8.20;1.23;;;22.20;97.30;;;;;;5076827;28;20021;-70
2022/08/27 07:32:43;;;;;;;4.93;1.33;;;22.50;96.90;;;;;;5076456;28;20028;-67
2022/08/27 07:35:09;;;;;;;5.53;1.42;;;22.60;95.80;;;;;;5075314;28;20170;-68
2022/08/27 07:37:39;;;;;;;4.75;1.33;;;22.80;95.50;;;;;;5076385;28;20099;-67
2022/08/27 07:40:08;;;;;;;6.82;1.60;;;23.10;95.40;;;;;;5076098;28;20035;-70
2022/08/27 07:45:18;;;;;;;3.63;1.27;;;23.70;94.40;;;;;;5076612;28;20032;-67
2022/08/27 07:47:44;;;;;;;3.67;1.33;;;24.10;94.10;;;;;;5076567;28;20020;-68
2022/08/27 07:50:10;;;;;;;4.63;1.20;;;24.30;93.70;;;;;;5076663;28;20053;-68
2022/08/27 07:52:35;;;;;;;5.80;1.65;;;24.50;93.60;;;;;;5073432;28;20065;-66
2022/08/27 07:55:01;;;;;;;2.40;1.08;;;24.80;93.30;;;;;;5074297;28;20046;-69
2022/08/27 07:57:27;;;;;;;3.17;1.70;;;25.10;92.30;;;;;;5076068;28;20028;-67
2022/08/27 07:59:52;;;;;;;4.30;1.10;;;25.50;92.00;;;;;;5076227;28;20055;-67
2022/08/27 08:02:18;;;;;;;4.28;1.25;;;26.10;91.50;;;;;;5076121;28;20026;-69
2022/08/27 08:04:44;;;;;;;3.67;1.30;;;26.80;90.80;;;;;;5075824;28;20021;-68
2022/08/27 08:07:10;;;;;;;10.73;1.70;;;27.50;90.10;;;;;;5075903;28;20512;-70
2022/08/27 08:09:36;;;;;;;3.15;1.23;;;28.20;87.40;;;;;;5076269;28;20064;-69
2022/08/27 08:12:02;;;;;;;7.72;1.40;;;28.60;84.70;;;;;;5076264;28;20044;-67
2022/08/27 08:14:30;;;;;;;4.78;1.10;;;28.90;83.60;;;;;;5076010;28;20025;-69
2022/08/27 08:16:59;;;;;;;3.45;1.33;;;29.10;82.10;;;;;;5075984;28;20328;-70
2022/08/27 08:19:25;;;;;;;4.85;1.33;;;29.00;81.90;;;;;;5075451;28;20063;-68
2022/08/27 08:21:50;;;;;;;4.55;1.08;;;29.00;82.40;;;;;;5075968;28;20469;-67
2022/08/27 08:24:17;;;;;;;9.27;1.70;;;29.30;82.30;;;;;;5075891;28;20031;-68
2022/08/27 08:26:43;;;;;;;6.85;1.20;;;29.70;81.80;;;;;;5074928;28;20111;-66
2022/08/27 08:29:09;;;;;;;5.50;1.40;;;30.10;80.00;;;;;;5075702;28;20104;-68
2022/08/27 08:31:34;;;;;;;5.85;1.73;;;30.20;79.00;;;;;;5075684;28;20303;-67
2022/08/27 08:34:00;;;;;;;6.20;1.30;;;30.30;79.40;;;;;;5075830;28;20467;-67
2022/08/27 08:36:26;;;;;;;7.18;1.30;;;30.40;78.20;;;;;;5075283;28;20467;-66
2022/08/27 08:38:53;;;;;;;4.75;1.63;;;30.60;77.40;;;;;;5072611;28;20094;-68
2022/08/27 08:41:35;;;;;;;3.08;1.10;;;30.80;77.30;;;;;;5075343;28;20127;-66
2022/08/27 08:44:12;;;;;;;5.72;1.40;;;30.90;75.70;;;;;;5075516;28;20060;-68
2022/08/27 08:47:22;;;;;;;1.98;0.73;;;30.90;74.70;;;;;;5074728;28;20130;-67
2022/08/27 08:50:09;;;;;;;4.80;1.25;;;31.00;73.50;;;;;;5055367;28;20118;-66
2022/08/27 08:52:45;;;;;;;4.35;0.95;;;30.60;74.40;;;;;;5075090;28;20101;-66
2022/08/27 08:55:24;;;;;;;6.18;1.55;;;30.50;74.70;;;;;;5075146;28;20462;-68
2022/08/27 08:58:22;;;;;;;5.07;1.13;;;30.60;74.30;;;;;;5074310;28;20021;-67
2022/08/27 09:00:56;;;;;;;4.57;1.25;;;31.10;73.90;;;;;;5071389;28;20082;-66
2022/08/27 09:03:22;;;;;;;4.28;1.10;;;31.50;73.40;;;;;;5074499;28;20028;-68
2022/08/27 09:05:55;;;;;;;6.07;1.30;;;31.70;72.20;;;;;;5074432;28;20028;-69
2022/08/27 09:08:30;;;;;;;6.40;1.60;;;31.90;70.50;;;;;;5075014;28;20103;-67
2022/08/27 09:10:58;;;;;;;3.25;1.05;;;32.30;69.40;;;;;;5074814;28;20020;-68
2022/08/27 09:13:54;;;;;;;6.57;1.33;;;32.30;68.10;;;;;;5074757;28;20021;-67
2022/08/27 09:16:20;;;;;;;5.82;1.40;;;31.50;69.10;;;;;;5069481;28;20068;-67
2022/08/27 09:18:46;;;;;;;5.68;1.40;;;30.60;69.10;;;;;;5073057;28;20028;-67
2022/08/27 09:21:17;;;;;;;7.22;1.30;;;29.80;71.30;;;;;;5062493;28;20033;-67
2022/08/27 09:24:03;;;;;;;6.13;1.35;;;29.20;73.40;;;;;;5053250;28;20024;-67
2022/08/27 09:26:31;;;;;;;5.22;1.33;;;28.40;75.20;;;;;;5054503;28;20055;-67
2022/08/27 09:29:14;;;;;;;5.50;1.38;;;27.80;76.80;;;;;;5054602;28;20115;-68
2022/08/27 09:31:42;;;;;;;6.10;1.40;;;27.30;77.60;;;;;;5064722;28;20095;-67
2022/08/27 09:34:08;;;;;;;5.32;1.33;;;26.90;79.10;;;;;;5073054;28;20145;-67
2022/08/27 09:36:34;;;;;;;3.20;1.38;;;26.60;79.20;;;;;;5071809;28;20056;-67
2022/08/27 09:39:04;;;;;;;7.45;1.20;;;26.20;80.20;;;;;;5073484;28;20092;-70
2022/08/27 09:41:38;;;;;;;5.90;1.67;;;26.00;81.90;;;;;;5074154;28;20050;-68
2022/08/27 09:44:10;;;;;;;6.65;1.25;;;26.40;83.10;;;;;;5073744;28;20024;-67
2022/08/27 09:46:36;;;;;;;7.63;1.55;;;27.80;79.90;;;;;;5074188;28;20062;-67
2022/08/27 09:49:14;;;;;;;5.28;1.08;;;29.00;77.90;;;;;;5073939;28;20016;-68
2022/08/27 09:51:42;;;;;;;4.70;1.25;;;30.10;75.20;;;;;;5073848;28;20110;-67
2022/08/27 09:54:09;;;;;;;4.55;1.35;;;31.20;73.40;;;;;;5059354;28;20029;-67
2022/08/27 09:56:38;;;;;;;2.30;0.88;;;32.20;71.10;;;;;;5068019;28;20121;-67
2022/08/27 09:59:21;;;;;;;2.58;1.33;;;32.70;69.80;;;;;;5072386;28;20017;-66
2022/08/27 10:01:50;;;;;;;6.43;1.50;;;32.50;69.70;;;;;;5058037;28;20037;-69
2022/08/27 10:04:22;;;;;;;3.53;1.00;;;31.90;70.40;;;;;;5073620;28;20017;-67
2022/08/27 10:06:50;;;;;;;5.63;1.15;;;31.20;70.80;;;;;;5073630;28;20104;-67
2022/08/27 10:09:30;;;;;;;3.58;1.10;;;30.30;71.70;;;;;;5073368;28;20036;-67
2022/08/27 10:12:05;;;;;;;5.18;1.63;;;29.50;72.50;;;;;;5072103;28;20020;-67
2022/08/27 10:14:37;;;;;;;5.40;1.30;;;28.80;74.10;;;;;;5073307;28;20120;-66
2022/08/27 10:17:31;;;;;;;4.00;1.17;;;28.30;74.20;;;;;;5073419;28;20021;-67
2022/08/27 10:20:08;;;;;;;3.70;1.10;;;27.70;74.90;;;;;;5053319;28;20036;-67
2022/08/27 10:22:46;;;;;;;5.32;1.25;;;26.90;74.40;;;;;;5073682;28;20044;-67
2022/08/27 10:26:00;;;;;;;6.93;1.10;;;26.50;76.60;;;;;;5062527;28;20366;-67
2022/08/27 10:28:53;;;;;;;3.90;1.05;;;26.30;77.30;;;;;;5029383;28;20112;-65
2022/08/27 10:31:34;;;;;;;4.07;1.15;;;26.30;78.70;;;;;;5072324;28;20028;-66
2022/08/27 10:34:07;;;;;;;5.00;1.30;;;26.10;77.30;;;;;;5068268;28;20021;-68
2022/08/27 10:37:05;;;;;;;5.05;1.15;;;25.90;78.60;;;;;;5060115;28;20020;-66
2022/08/27 10:39:45;;;;;;;4.97;1.48;;;26.00;79.00;;;;;;5049442;28;20056;-66
2022/08/27 10:42:20;;;;;;;4.18;1.40;;;27.00;78.00;;;;;;5072908;28;20029;-67
2022/08/27 10:45:00;;;;;;;8.50;1.33;;;28.40;76.40;;;;;;5073009;28;20016;-68
2022/08/27 10:47:38;;;;;;;6.90;1.13;;;30.10;73.40;;;;;;5072534;28;20020;-68
2022/08/27 10:50:27;;;;;;;5.40;1.33;;;31.40;71.40;;;;;;5067089;28;20013;-68
2022/08/27 10:53:08;;;;;;;6.45;1.23;;;32.10;68.20;;;;;;5055371;28;20024;-68
2022/08/27 10:55:40;;;;;;;4.30;1.52;;;31.70;68.10;;;;;;5058788;28;20028;-68
2022/08/27 10:58:38;;;;;;;3.42;0.90;;;31.40;68.60;;;;;;5063769;28;20462;-68
2022/08/27 11:01:31;;;;;;;2.75;1.13;;;31.80;67.50;;;;;;5072293;28;20044;-66
2022/08/27 11:04:09;;;;;;;3.55;1.33;;;31.80;67.40;;;;;;5069174;28;20028;-67
2022/08/27 11:06:59;;;;;;;2.60;1.40;;;32.10;67.70;;;;;;5072322;28;20025;-70
2022/08/27 11:09:24;;;;;;;4.35;1.48;;;32.40;67.30;;;;;;5073210;28;20028;-67
2022/08/27 11:11:55;;;;;;;4.72;1.38;;;31.80;66.50;;;;;;5072175;28;20023;-67
2022/08/27 11:14:27;;;;;;;6.13;1.37;;;31.00;67.70;;;;;;5067910;28;20043;-67
2022/08/27 11:16:58;;;;;;;6.93;1.10;;;30.10;70.40;;;;;;5069415;28;20013;-67
2022/08/27 11:19:53;;;;;;;5.00;0.95;;;29.00;72.60;;;;;;5066410;28;20044;-69
2022/08/27 11:22:28;;;;;;;5.25;1.45;;;28.00;74.80;;;;;;5065061;28;20036;-67
2022/08/27 11:25:05;;;;;;;4.57;1.10;;;27.10;76.40;;;;;;5069532;28;20016;-67
2022/08/27 11:27:32;;;;;;;4.47;1.10;;;26.40;77.20;;;;;;5065865;28;20837;-67
2022/08/27 11:30:05;;;;;;;6.07;1.05;;;25.80;78.30;;;;;;5067789;28;20020;-67
2022/08/27 11:32:42;;;;;;;3.35;1.00;;;25.60;79.40;;;;;;5068533;28;20124;-68
2022/08/27 11:35:46;;;;;;;2.30;1.10;;;25.30;80.20;;;;;;5068167;28;20028;-68
2022/08/27 11:38:12;;;;;;;2.60;1.15;;;25.30;80.50;;;;;;5068426;28;20023;-67
2022/08/27 11:40:48;;;;;;;4.07;1.00;;;25.20;81.20;;;;;;5070647;28;20037;-68
2022/08/27 11:43:18;;;;;;;5.00;1.52;;;25.30;81.40;;;;;;5069248;28;20020;-67
2022/08/27 11:45:57;;;;;;;4.68;0.90;;;25.30;81.20;;;;;;5070894;28;20012;-67
2022/08/27 11:48:24;;;;;;;4.60;1.20;;;25.30;81.60;;;;;;5070506;28;20029;-67
2022/08/27 11:51:27;;;;;;;6.68;1.05;;;25.30;82.10;;;;;;5068566;28;20021;-67
2022/08/27 11:54:02;;;;;;;2.90;0.93;;;25.20;79.60;;;;;;5068471;28;20021;-67
2022/08/27 11:56:27;;;;;;;3.10;1.13;;;25.20;80.00;;;;;;5071090;28;20024;-67
2022/08/27 11:58:53;;;;;;;4.15;1.20;;;25.30;80.50;;;;;;5069706;28;20350;-68
2022/08/27 12:01:27;;;;;;;5.28;1.10;;;25.40;80.20;;;;;;5067390;28;20037;-67
2022/08/27 12:04:05;;;;;;;3.40;0.93;;;25.70;80.10;;;;;;5068510;28;20023;-67
2022/08/27 12:06:42;;;;;;;4.40;0.88;;;25.90;79.90;;;;;;5068419;28;20020;-67
2022/08/27 12:09:19;;;;;;;4.53;0.80;;;26.00;79.20;;;;;;5070432;28;20058;-67
2022/08/27 12:12:19;;;;;;;6.03;1.60;;;26.20;79.10;;;;;;5070715;28;20040;-67
2022/08/27 12:15:11;;;;;;;5.97;1.30;;;26.30;78.70;;;;;;5071812;28;20037;-67
2022/08/27 12:17:42;;;;;;;5.00;0.93;;;27.00;77.90;;;;;;5072608;28;20024;-66
2022/08/27 12:20:41;;;;;;;2.17;1.00;;;28.10;75.20;;;;;;5074005;28;20129;-67
2022/08/27 12:23:39;;;;;;;3.80;0.93;;;29.40;71.10;;;;;;5072398;28;20021;-69
2022/08/27 12:26:26;;;;;;;4.82;1.23;;;30.40;71.00;;;;;;5072962;28;20082;-66
2022/08/27 12:29:20;;;;;;;5.85;1.10;;;30.50;70.60;;;;;;5072124;28;20016;-69
2022/08/27 12:31:47;;;;;;;1.95;0.88;;;29.90;70.80;;;;;;5074333;28;20020;-67
2022/08/27 12:34:28;;;;;;;3.33;0.90;;;29.30;71.70;;;;;;5074271;28;20040;-66
2022/08/27 12:36:55;;;;;;;4.43;0.85;;;28.50;73.50;;;;;;5075201;28;20017;-67
2022/08/27 12:39:31;;;;;;;2.28;0.65;;;28.00;75.00;;;;;;5074372;28;20024;-66
2022/08/27 12:41:56;;;;;;;5.20;1.05;;;27.50;75.80;;;;;;5075151;28;20032;-66
2022/08/27 12:44:26;;;;;;;2.75;0.80;;;26.90;75.50;;;;;;5075106;28;20343;-67
2022/08/27 12:46:57;;;;;;;3.95;0.90;;;26.50;76.40;;;;;;5074910;28;20047;-66
2022/08/27 12:49:30;;;;;;;3.63;0.80;;;26.40;77.10;;;;;;5074945;28;20020;-67
2022/08/27 12:52:01;;;;;;;3.63;1.23;;;26.80;76.50;;;;;;5072214;28;20017;-67
2022/08/27 12:54:56;;;;;;;5.80;1.00;;;27.00;76.30;;;;;;5075100;28;20162;-66
2022/08/27 12:57:30;;;;;;;3.33;0.88;;;26.90;76.60;;;;;;5037541;28;20041;-67
2022/08/27 13:00:12;;;;;;;3.60;0.98;;;26.70;76.60;;;;;;5074022;28;20482;-68
2022/08/27 13:03:03;;;;;;;5.97;1.17;;;26.50;77.10;;;;;;5075457;28;20027;-66
2022/08/27 13:05:41;;;;;;;5.65;1.30;;;26.40;77.20;;;;;;5074707;28;20025;-66
2022/08/27 13:08:21;;;;;;;4.15;1.00;;;26.50;76.90;;;;;;5074264;28;20059;-65
2022/08/27 13:10:48;;;;;;;7.82;0.80;;;26.80;76.20;;;;;;5074965;28;20017;-67
2022/08/27 13:13:22;;;;;;;3.65;1.00;;;26.90;76.60;;;;;;5075005;28;20017;-67
2022/08/27 13:15:58;;;;;;;2.60;0.85;;;26.80;77.00;;;;;;5074090;28;20024;-67